Time;durP1;ratioP1;P1;durP2;ratioP2;P2;SDS_P1;SDS_P2;PMS_P1;PMS_P2;Temp;Humidity;BMP_temperature;BMP_pressure;BME280_temperature;BME280_humidity;BME280_pressure;Samples;Min_cycle;Max_cycle;Signal;HPM_P1;HPM_P2
2023/01/29 00:01:27;;;;;;;24.98;9.90;;;;;;;6.25;42.42;102864.25;5013879;28;20022;-62
2023/01/29 00:03:53;;;;;;;25.10;9.85;;;;;;;6.24;42.97;102866.03;5004955;28;20528;-63
2023/01/29 00:06:19;;;;;;;19.90;8.95;;;;;;;6.23;42.78;102861.63;5013183;28;20517;-63
2023/01/29 00:08:44;;;;;;;27.83;10.05;;;;;;;6.24;42.24;102862.50;5013209;28;20443;-63
2023/01/29 00:11:11;;;;;;;19.67;8.88;;;;;;;6.22;42.38;102857.25;5013023;28;20034;-63
2023/01/29 00:13:36;;;;;;;26.23;10.85;;;;;;;6.21;43.04;102852.81;5012541;28;20105;-63
2023/01/29 00:16:02;;;;;;;26.13;10.07;;;;;;;6.20;42.11;102847.53;4995160;28;20065;-63
2023/01/29 00:18:28;;;;;;;24.88;10.35;;;;;;;6.20;42.62;102855.53;5011710;28;20433;-63
2023/01/29 00:20:54;;;;;;;24.35;10.35;;;;;;;6.11;42.55;102830.13;5012843;28;20049;-63
2023/01/29 00:23:19;;;;;;;25.23;9.73;;;;;;;6.13;42.33;102832.72;4995139;28;20061;-63
2023/01/29 00:25:45;;;;;;;21.95;9.90;;;;;;;6.14;41.92;102840.63;5013141;28;20065;-63
2023/01/29 00:28:11;;;;;;;19.42;8.77;;;;;;;6.12;41.62;102836.28;5011675;28;20042;-62
2023/01/29 00:30:37;;;;;;;21.15;7.90;;;;;;;6.09;41.91;102831.94;5015156;28;20061;-63
2023/01/29 00:33:03;;;;;;;22.98;9.07;;;;;;;6.09;42.63;102834.59;5016657;28;20455;-63
2023/01/29 00:35:29;;;;;;;22.85;10.48;;;;;;;6.08;41.91;102824.91;5016748;28;20494;-63
2023/01/29 00:37:55;;;;;;;21.23;9.18;;;;;;;6.05;41.79;102824.13;5015068;28;20046;-63
2023/01/29 00:40:21;;;;;;;19.42;9.55;;;;;;;6.03;41.52;102821.50;4999311;28;20532;-63
2023/01/29 00:45:31;;;;;;;22.02;9.30;;;;;;;6.02;41.59;102825.09;5015619;28;20092;-62
2023/01/29 00:47:56;;;;;;;30.45;9.85;;;;;;;6.01;41.55;102828.69;5015285;28;20454;-62
2023/01/29 00:50:22;;;;;;;26.67;9.73;;;;;;;6.00;43.31;102821.63;5015454;28;20042;-62
2023/01/29 00:52:48;;;;;;;25.65;9.55;;;;;;;6.01;41.66;102823.34;5016750;28;20528;-63
2023/01/29 00:55:15;;;;;;;29.02;9.75;;;;;;;5.98;43.23;102828.78;5015111;28;20494;-62
2023/01/29 00:57:40;;;;;;;20.30;9.23;;;;;;;5.98;41.63;102828.78;5015071;28;20124;-62
2023/01/29 01:00:09;;;;;;;22.13;9.18;;;;;;;5.98;41.96;102830.56;4998584;28;20522;-62
2023/01/29 01:05:19;;;;;;;27.27;9.50;;;;;;;5.99;43.08;102819.88;5015045;28;20073;-62
2023/01/29 01:07:50;;;;;;;23.42;9.77;;;;;;;6.00;42.45;102832.28;5015138;28;20421;-62
2023/01/29 01:10:21;;;;;;;19.95;8.43;;;;;;;6.04;43.58;102828.56;5016563;28;20042;-62
2023/01/29 01:13:07;;;;;;;30.60;10.88;;;;;;;6.06;41.54;102826.72;5015956;28;20038;-63
2023/01/29 01:15:37;;;;;;;28.75;9.43;;;;;;;6.09;42.99;102828.41;5015850;28;20133;-62
2023/01/29 01:18:03;;;;;;;29.90;10.40;;;;;;;6.08;41.59;102824.91;5014901;28;20045;-62
2023/01/29 01:20:31;;;;;;;29.40;9.20;;;;;;;6.09;42.43;102831.06;4998254;28;20030;-62
2023/01/29 01:22:57;;;;;;;25.77;9.98;;;;;;;6.06;42.68;102821.41;5014703;28;20030;-62
2023/01/29 01:25:23;;;;;;;26.70;10.20;;;;;;;6.04;41.96;102812.63;5015030;28;20425;-62
2023/01/29 01:27:56;;;;;;;24.70;10.68;;;;;;;6.02;42.53;102806.47;4998124;28;20029;-62
2023/01/29 01:30:22;;;;;;;;;;;;;;;6.04;43.36;102801.97;4999488;28;20096;-62
2023/01/29 01:32:48;;;;;;;30.02;9.68;;;;;;;6.00;42.75;102794.16;5015533;28;19913;-62
2023/01/29 01:35:13;;;;;;;27.90;9.75;;;;;;;6.00;42.53;102795.03;5014266;28;20120;-62
2023/01/29 01:37:39;;;;;;;27.58;10.55;;;;;;;6.06;41.89;102793.97;4998635;28;20038;-62
2023/01/29 01:40:11;;;;;;;28.27;10.80;;;;;;;6.06;42.51;102786.81;4997976;28;20034;-62
2023/01/29 01:42:40;;;;;;;29.05;11.02;;;;;;;6.06;41.80;102789.47;5013928;28;20406;-62
2023/01/29 01:45:09;;;;;;;27.23;10.45;;;;;;;6.08;43.12;102795.66;5015351;28;20045;-62
2023/01/29 01:47:45;;;;;;;27.38;11.32;;;;;;;6.10;43.50;102801.78;4982301;28;20041;-63
2023/01/29 01:50:30;;;;;;;32.15;13.07;;;;;;;6.11;41.77;102798.19;5014017;28;20042;-63
2023/01/29 01:53:00;;;;;;;33.45;11.63;;;;;;;6.09;42.74;102784.06;5015303;28;20046;-63
2023/01/29 01:55:27;;;;;;;31.98;12.48;;;;;;;6.12;41.83;102791.06;5015684;28;20022;-63
2023/01/29 01:57:58;;;;;;;26.77;9.73;;;;;;;6.17;43.23;102805.09;5013895;28;20048;-63
2023/01/29 02:00:25;;;;;;;28.27;10.95;;;;;;;6.19;42.95;102806.78;5014802;28;20037;-63
2023/01/29 02:11:14;;;;;;;32.42;12.90;;;;;;;6.17;43.88;102803.28;5014852;28;20087;-63
2023/01/29 02:13:41;;;;;;;29.45;12.40;;;;;;;6.18;42.39;102805.03;5013875;28;20524;-63
2023/01/29 02:16:07;;;;;;;29.38;11.73;;;;;;;6.19;43.53;102796.16;4997181;28;20100;-63
2023/01/29 02:18:36;;;;;;;35.83;13.25;;;;;;;6.21;42.78;102799.63;5014668;28;20034;-63
2023/01/29 02:21:30;;;;;;;31.95;11.70;;;;;;;6.24;42.43;102810.16;4997396;28;20053;-63
2023/01/29 02:24:23;;;;;;;33.47;11.15;;;;;;;6.27;43.35;102820.69;5014819;28;20390;-63
2023/01/29 02:27:04;;;;;;;37.28;12.60;;;;;;;6.27;42.31;102828.69;5014669;28;20397;-63
2023/01/29 02:29:43;;;;;;;29.65;9.65;;;;;;;6.25;43.84;102819.84;5014693;28;20034;-63
2023/01/29 02:32:22;;;;;;;27.80;11.15;;;;;;;6.24;43.54;102818.13;5014621;28;20034;-63
2023/01/29 02:35:30;;;;;;;31.15;11.05;;;;;;;6.26;42.17;102818.94;5013359;28;20021;-64
2023/01/29 02:38:22;;;;;;;28.63;10.55;;;;;;;6.28;43.01;102821.56;5014459;28;20025;-63
2023/01/29 02:40:55;;;;;;;30.48;10.30;;;;;;;6.27;43.11;102823.34;5013191;28;20049;-65
2023/01/29 02:43:32;;;;;;;33.47;12.23;;;;;;;6.27;43.88;102826.00;5014567;28;20026;-63
2023/01/29 02:46:35;;;;;;;32.42;12.05;;;;;;;6.26;42.40;102824.25;5012949;28;20068;-63
2023/01/29 02:49:16;;;;;;;34.13;12.05;;;;;;;6.24;43.73;102834.09;5014450;28;20037;-63
2023/01/29 02:51:41;;;;;;;25.15;12.85;;;;;;;6.23;42.69;102839.44;4996360;28;20061;-63
2023/01/29 02:54:15;;;;;;;28.77;11.40;;;;;;;6.21;43.87;102842.19;5013242;28;20439;-63
2023/01/29 02:57:05;;;;;;;32.45;10.50;;;;;;;6.20;43.14;102835.13;5014113;28;20029;-64
2023/01/29 02:59:44;;;;;;;33.25;11.18;;;;;;;6.20;43.32;102829.78;5013762;28;20033;-63
2023/01/29 03:02:15;;;;;;;32.78;10.48;;;;;;;6.19;42.39;102820.09;4996214;28;20033;-63
2023/01/29 03:04:45;;;;;;;31.88;11.48;;;;;;;6.15;43.80;102815.78;5013027;28;20030;-63
2023/01/29 03:07:39;;;;;;;34.33;10.70;;;;;;;6.16;42.47;102821.97;5012672;28;20037;-63
2023/01/29 03:10:02;;;;;;;31.30;10.60;;;;;;;6.15;43.04;102826.41;4999302;28;20034;-63
2023/01/29 03:12:35;;;;;;;35.38;11.70;;;;;;;6.13;42.60;102822.06;5012850;28;20030;-63
2023/01/29 03:15:15;;;;;;;37.88;13.30;;;;;;;6.12;42.97;102821.19;5014027;28;20060;-63
2023/01/29 03:17:46;;;;;;;35.90;12.68;;;;;;;6.06;43.91;102818.75;4997987;28;20121;-62
2023/01/29 03:20:17;;;;;;;40.58;14.65;;;;;;;6.15;44.14;102825.53;5012847;28;20026;-63
2023/01/29 03:22:45;;;;;;;38.05;12.52;;;;;;;6.18;42.56;102826.31;5013123;28;20544;-63
2023/01/29 03:33:49;;;;;;;31.63;13.73;;;;;;;6.15;43.45;102822.88;5012794;28;20029;-63
2023/01/29 03:36:18;;;;;;;36.10;13.30;;;;;;;6.18;43.39;102842.28;5012508;28;20104;-63
2023/01/29 03:38:44;;;;;;;35.20;13.50;;;;;;;6.21;43.79;102831.53;5012248;28;20064;-63
2023/01/29 03:41:11;;;;;;;41.33;15.27;;;;;;;6.24;42.89;102831.44;5012452;28;20029;-63
2023/01/29 03:43:49;;;;;;;51.92;14.93;;;;;;;6.25;44.11;102827.84;5012934;28;20041;-63
2023/01/29 03:46:35;;;;;;;33.67;12.98;;;;;;;6.27;42.95;102838.44;5012464;28;20037;-63
2023/01/29 03:49:22;;;;;;;32.83;12.07;;;;;;;6.27;42.66;102836.66;5012346;28;20034;-63
2023/01/29 03:52:14;;;;;;;33.63;13.50;;;;;;;6.26;43.99;102828.72;5012247;28;20410;-63
2023/01/29 03:54:45;;;;;;;35.42;14.32;;;;;;;6.23;44.13;102815.50;4995873;28;20034;-63
2023/01/29 03:57:16;;;;;;;36.13;11.90;;;;;;;6.20;42.46;102813.81;5013558;28;20045;-63
2023/01/29 04:00:12;;;;;;;35.65;11.68;;;;;;;6.13;43.04;102809.66;5012192;28;20032;-63
2023/01/29 04:03:10;;;;;;;32.47;11.85;;;;;;;6.11;42.94;102806.19;5012709;28;20033;-63
2023/01/29 04:05:50;;;;;;;38.78;11.55;;;;;;;6.15;44.30;102810.47;4984887;28;20045;-63
2023/01/29 04:08:22;;;;;;;36.38;13.27;;;;;;;6.16;44.15;102811.34;5016614;28;20065;-63
2023/01/29 04:10:49;;;;;;;36.38;12.90;;;;;;;6.18;43.21;102815.69;5019400;28;20032;-64
2023/01/29 04:13:14;;;;;;;34.63;12.93;;;;;;;6.16;43.53;102793.59;5000106;28;20069;-63
2023/01/29 04:15:45;;;;;;;39.78;13.80;;;;;;;6.24;42.85;102798.63;5015470;28;20050;-63
2023/01/29 04:18:10;;;;;;;31.45;11.60;;;;;;;6.24;44.10;102794.19;5016986;28;20029;-63
2023/01/29 04:20:36;;;;;;;40.75;13.38;;;;;;;6.25;42.67;102792.41;5016921;28;20057;-63
2023/01/29 04:23:04;;;;;;;39.50;13.65;;;;;;;6.27;44.30;102780.78;5015884;28;20026;-64
2023/01/29 04:25:36;;;;;;;43.45;13.23;;;;;;;6.28;43.81;102777.19;4999490;28;20442;-64
2023/01/29 04:28:18;;;;;;;37.42;11.77;;;;;;;6.32;44.35;102776.16;4999094;28;20060;-63
2023/01/29 04:30:53;;;;;;;35.13;12.90;;;;;;;6.35;44.24;102770.72;5015586;28;20026;-63
2023/01/29 04:33:41;;;;;;;39.60;13.05;;;;;;;6.39;43.67;102761.69;5015557;28;20599;-63
2023/01/29 04:36:43;;;;;;;43.33;13.13;;;;;;;6.40;44.57;102760.78;5016702;28;20472;-64
2023/01/29 04:39:18;;;;;;;38.30;13.60;;;;;;;6.40;44.05;102758.13;5016502;28;20057;-63
2023/01/29 04:42:08;;;;;;;35.50;12.63;;;;;;;6.48;43.77;102764.97;5015435;28;20120;-63
2023/01/29 04:44:34;;;;;;;36.40;14.10;;;;;;;6.51;42.99;102764.84;4998949;28;20044;-63
2023/01/29 04:47:25;;;;;;;38.20;14.20;;;;;;;6.43;44.46;102741.16;5016311;28;20395;-64
2023/01/29 04:49:55;;;;;;;37.50;13.10;;;;;;;6.58;44.73;102755.72;5016240;28;20371;-64
2023/01/29 04:52:47;;;;;;;35.22;15.50;;;;;;;6.63;43.61;102761.75;5016101;28;20179;-63
2023/01/29 04:55:20;;;;;;;31.55;12.32;;;;;;;6.68;43.40;102757.97;5016361;28;20041;-63
2023/01/29 04:57:45;;;;;;;;;;;;;;;6.75;44.47;102753.31;5016976;28;20034;-63
2023/01/29 05:00:26;;;;;;;34.13;12.38;;;;;;;6.79;43.85;102747.78;5016268;28;19979;-63
2023/01/29 05:02:52;;;;;;;39.78;14.45;;;;;;;6.82;43.17;102739.69;5015055;28;20037;-63
2023/01/29 05:05:19;;;;;;;39.10;12.70;;;;;;;6.89;43.07;102735.00;5014591;28;20411;-63
2023/01/29 05:07:45;;;;;;;39.33;13.45;;;;;;;6.92;44.10;102745.56;5015457;28;20125;-63
2023/01/29 05:10:12;;;;;;;34.13;13.82;;;;;;;6.95;44.46;102753.44;4998616;28;20115;-63
2023/01/29 05:12:38;;;;;;;35.03;14.07;;;;;;;6.97;43.07;102744.44;5014884;28;20041;-63
2023/01/29 05:15:08;;;;;;;39.38;13.60;;;;;;;7.00;43.45;102756.78;5014265;28;20045;-63
2023/01/29 05:17:33;;;;;;;39.80;14.10;;;;;;;7.02;42.96;102755.78;5013537;28;20453;-62
2023/01/29 05:19:59;;;;;;;36.20;12.73;;;;;;;7.03;43.42;102751.34;4998531;28;20104;-62
2023/01/29 05:22:25;;;;;;;45.47;13.88;;;;;;;7.05;43.36;102746.81;5014927;28;20109;-63
2023/01/29 05:24:51;;;;;;;36.85;14.18;;;;;;;7.04;43.52;102745.94;5014267;28;20080;-62
2023/01/29 05:30:04;;;;;;;37.63;14.30;;;;;;;6.96;43.40;102733.84;5013493;28;20421;-62
2023/01/29 05:32:30;;;;;;;35.83;12.32;;;;;;;7.01;43.21;102746.03;5014170;28;20545;-62
2023/01/29 05:34:55;;;;;;;37.30;14.25;;;;;;;6.99;43.00;102749.69;5014239;28;20065;-62
2023/01/29 05:37:20;;;;;;;39.35;13.27;;;;;;;6.95;43.95;102740.09;5016210;28;20475;-63
2023/01/29 05:39:46;;;;;;;44.35;14.30;;;;;;;6.95;43.18;102740.09;5015504;28;20034;-63
2023/01/29 05:42:11;;;;;;;37.95;14.50;;;;;;;6.97;43.85;102743.56;5015596;28;20062;-63
2023/01/29 05:44:36;;;;;;;35.47;14.80;;;;;;;6.98;43.58;102735.50;4997936;28;20095;-63
2023/01/29 05:47:02;;;;;;;35.00;13.35;;;;;;;6.98;43.11;102731.97;5015185;28;20120;-63
2023/01/29 05:49:27;;;;;;;40.70;14.05;;;;;;;6.96;42.93;102732.03;5015617;28;20038;-63
2023/01/29 05:51:53;;;;;;;38.15;14.65;;;;;;;6.97;43.94;102735.59;5013930;28;20096;-63
2023/01/29 05:54:18;;;;;;;36.10;12.90;;;;;;;6.89;44.21;102722.56;5013958;28;20553;-63
2023/01/29 05:56:44;;;;;;;33.80;14.23;;;;;;;6.94;44.36;102722.38;5015035;28;20033;-63
2023/01/29 05:59:09;;;;;;;38.80;14.07;;;;;;;6.95;44.52;102718.81;4997559;28;20042;-63
2023/01/29 06:01:35;;;;;;;45.22;13.38;;;;;;;6.92;43.73;102725.09;5015472;28;20120;-63
2023/01/29 06:04:00;;;;;;;47.50;14.70;;;;;;;6.93;44.78;102723.28;5013924;28;20041;-63
2023/01/29 06:06:26;;;;;;;36.22;12.73;;;;;;;6.92;44.88;102726.91;4996516;28;20046;-63
2023/01/29 06:08:51;;;;;;;37.95;13.65;;;;;;;6.94;43.85;102738.38;5015284;28;20037;-64
2023/01/29 06:11:17;;;;;;;42.47;15.35;;;;;;;6.94;43.74;102733.91;4997673;28;20030;-64
2023/01/29 06:13:43;;;;;;;44.40;13.88;;;;;;;6.96;44.72;102747.16;5014019;28;20053;-64
2023/01/29 06:16:10;;;;;;;41.22;13.82;;;;;;;6.99;44.36;102749.69;5015135;28;20104;-64
2023/01/29 06:18:36;;;;;;;36.90;13.80;;;;;;;6.97;44.52;102738.25;5015963;28;20044;-63
2023/01/29 06:21:04;;;;;;;36.25;13.57;;;;;;;6.99;43.79;102747.91;5013623;28;20118;-63
2023/01/29 06:23:31;;;;;;;38.85;14.35;;;;;;;7.01;43.78;102750.50;4997032;28;20075;-63
2023/01/29 06:26:04;;;;;;;38.58;15.27;;;;;;;7.04;43.53;102755.72;5014573;28;20030;-64
2023/01/29 06:28:29;;;;;;;;;;;;;;;7.05;43.51;102757.47;5013990;28;20025;-64
2023/01/29 06:30:59;;;;;;;41.10;13.02;;;;;;;7.08;44.13;102768.00;5013364;28;20366;-64
2023/01/29 06:33:24;;;;;;;38.33;13.18;;;;;;;7.11;43.18;102780.34;4997271;28;20061;-63
2023/01/29 06:36:02;;;;;;;40.70;13.57;;;;;;;7.13;44.33;102781.13;4995522;28;20518;-64
2023/01/29 06:38:27;;;;;;;40.42;14.07;;;;;;;7.18;43.62;102790.69;5014214;28;20033;-64
2023/01/29 06:40:53;;;;;;;41.47;14.70;;;;;;;7.19;43.25;102792.44;4996567;28;20092;-64
2023/01/29 06:43:19;;;;;;;36.97;14.02;;;;;;;7.20;43.65;102790.66;4997027;28;20495;-64
2023/01/29 06:45:52;;;;;;;36.55;13.18;;;;;;;7.22;43.02;102796.78;5012850;28;20125;-64
2023/01/29 06:48:18;;;;;;;34.88;14.32;;;;;;;7.21;44.49;102795.91;5014512;28;20034;-63
2023/01/29 06:50:43;;;;;;;47.80;14.27;;;;;;;7.21;44.22;102801.22;5014282;28;20056;-63
2023/01/29 06:53:09;;;;;;;46.67;16.05;;;;;;;7.19;44.30;102787.09;5014158;28;20061;-63
2023/01/29 06:55:35;;;;;;;43.15;15.27;;;;;;;7.18;44.09;102785.34;5013439;28;20132;-64
2023/01/29 06:58:12;;;;;;;39.55;14.68;;;;;;;7.18;43.29;102780.03;4996480;28;20443;-64
2023/01/29 07:00:38;;;;;;;45.92;14.45;;;;;;;7.18;44.72;102780.03;5013161;28;20033;-63
2023/01/29 07:03:04;;;;;;;30.58;12.55;;;;;;;7.18;44.13;102772.03;5012830;28;20624;-64
2023/01/29 07:05:30;;;;;;;40.28;14.60;;;;;;;7.20;44.70;102764.88;4996194;28;20041;-64
2023/01/29 07:07:55;;;;;;;38.03;13.90;;;;;;;7.20;43.97;102759.53;4996163;28;20041;-64
2023/01/29 07:10:20;;;;;;;43.78;15.65;;;;;;;7.11;43.30;102737.69;5014334;28;20079;-63
2023/01/29 07:12:46;;;;;;;40.83;13.00;;;;;;;7.13;44.04;102750.03;5012586;28;20030;-63
2023/01/29 07:15:11;;;;;;;38.03;14.05;;;;;;;7.12;43.96;102745.63;5013701;28;20064;-63
2023/01/29 07:17:37;;;;;;;36.63;14.98;;;;;;;7.13;44.16;102747.38;5012264;28;20498;-63
2023/01/29 07:20:04;;;;;;;41.38;15.45;;;;;;;7.12;44.25;102756.28;5012437;28;20120;-64
2023/01/29 07:22:30;;;;;;;45.03;16.48;;;;;;;7.10;43.68;102752.81;5012750;28;20109;-64
2023/01/29 07:24:56;;;;;;;45.80;14.70;;;;;;;7.07;43.56;102747.59;5013594;28;20125;-63
2023/01/29 07:27:21;;;;;;;45.63;14.43;;;;;;;7.07;43.16;102752.94;5013653;28;20034;-63
2023/01/29 07:29:47;;;;;;;37.38;14.25;;;;;;;6.96;43.46;102731.16;5012126;28;20030;-63
2023/01/29 07:32:12;;;;;;;41.70;14.02;;;;;;;7.03;43.50;102748.66;4995761;28;20038;-63
2023/01/29 07:34:37;;;;;;;37.13;14.38;;;;;;;6.99;44.66;102747.03;5013648;28;20036;-63
2023/01/29 07:37:05;;;;;;;42.40;14.63;;;;;;;6.99;44.41;102753.25;5013368;28;20502;-63
2023/01/29 07:39:30;;;;;;;42.85;14.75;;;;;;;7.01;44.16;102750.50;4995396;28;20116;-63
2023/01/29 07:41:56;;;;;;;46.50;15.55;;;;;;;6.98;44.74;102756.81;4995929;28;20176;-63
2023/01/29 07:44:21;;;;;;;39.08;14.27;;;;;;;7.00;43.81;102764.78;5011997;28;20038;-63
2023/01/29 07:46:47;;;;;;;43.35;14.63;;;;;;;7.01;43.51;102755.84;5012429;28;20041;-63
2023/01/29 07:49:12;;;;;;;43.40;13.85;;;;;;;7.01;43.27;102750.50;5012041;28;20057;-63
2023/01/29 07:51:37;;;;;;;44.30;15.18;;;;;;;7.06;43.24;102750.34;5011982;28;20042;-63
2023/01/29 07:54:03;;;;;;;41.28;15.23;;;;;;;7.08;43.28;102757.34;5013460;28;20038;-63
2023/01/29 07:56:28;;;;;;;39.05;14.05;;;;;;;7.07;43.20;102742.28;4995610;28;20038;-63
2023/01/29 07:58:54;;;;;;;44.40;14.27;;;;;;;7.18;43.45;102747.19;5013206;28;20034;-63
2023/01/29 08:01:19;;;;;;;40.38;14.13;;;;;;;7.18;44.05;102748.06;5013776;28;20061;-63
2023/01/29 08:03:44;;;;;;;42.53;14.23;;;;;;;7.17;44.82;102749.00;5011972;28;20113;-63
2023/01/29 08:06:10;;;;;;;40.78;14.65;;;;;;;7.19;43.12;102748.94;5013330;28;20498;-63
2023/01/29 08:08:35;;;;;;;39.75;14.85;;;;;;;7.18;43.14;102750.72;4995832;28;20041;-63
2023/01/29 08:11:01;;;;;;;37.92;12.57;;;;;;;7.16;44.62;102744.59;5011951;28;20410;-63
2023/01/29 08:13:27;;;;;;;40.55;15.80;;;;;;;7.17;43.56;102742.81;5013508;28;20467;-63
2023/01/29 08:15:52;;;;;;;35.47;13.10;;;;;;;7.15;43.88;102740.19;5013597;28;20044;-63
2023/01/29 08:18:17;;;;;;;46.25;14.38;;;;;;;7.18;43.11;102740.06;5011527;28;20042;-63
2023/01/29 08:20:43;;;;;;;39.78;15.95;;;;;;;7.20;43.59;102735.56;5013231;28;20588;-63
2023/01/29 08:23:12;;;;;;;44.45;14.43;;;;;;;7.21;43.30;102745.28;5013065;28;20029;-63
2023/01/29 08:25:38;;;;;;;36.72;13.00;;;;;;;7.23;43.07;102750.56;5012250;28;20030;-64
2023/01/29 08:28:03;;;;;;;37.10;13.05;;;;;;;7.25;44.63;102748.69;5015429;28;20526;-64
2023/01/29 08:30:31;;;;;;;40.47;13.27;;;;;;;7.23;44.64;102747.88;5011927;28;20495;-63
2023/01/29 08:32:56;;;;;;;40.65;13.75;;;;;;;7.23;42.93;102748.72;5012034;28;20569;-63
2023/01/29 08:35:22;;;;;;;44.00;14.43;;;;;;;7.20;44.29;102740.00;5011933;28;20049;-63
2023/01/29 08:37:57;;;;;;;37.30;14.02;;;;;;;7.23;43.81;102740.75;4996108;28;20061;-64
2023/01/29 08:40:22;;;;;;;38.40;13.90;;;;;;;7.25;43.66;102743.34;5008585;28;20121;-63
2023/01/29 08:42:47;;;;;;;40.70;12.98;;;;;;;7.22;43.63;102748.81;5009538;28;20057;-64
2023/01/29 08:45:13;;;;;;;44.45;15.18;;;;;;;7.23;43.59;102750.56;5011771;28;20072;-63
2023/01/29 08:47:44;;;;;;;43.38;14.57;;;;;;;7.24;43.65;102753.16;5012839;28;20034;-63
2023/01/29 08:50:10;;;;;;;42.08;12.70;;;;;;;7.29;43.19;102752.94;5012509;28;20471;-64
2023/01/29 08:52:35;;;;;;;34.20;13.30;;;;;;;7.31;43.73;102754.66;4999158;28;20072;-65
2023/01/29 08:55:01;;;;;;;36.95;14.52;;;;;;;7.34;43.64;102749.19;5016471;28;20038;-66
2023/01/29 08:57:26;;;;;;;33.53;13.15;;;;;;;7.37;43.83;102754.38;5015265;28;20498;-64
2023/01/29 08:59:51;;;;;;;39.95;12.60;;;;;;;7.43;44.02;102740.81;5016637;28;20057;-64
2023/01/29 09:02:17;;;;;;;40.47;14.52;;;;;;;7.49;44.19;102726.38;5016493;28;20364;-64
2023/01/29 09:04:42;;;;;;;40.47;14.23;;;;;;;7.54;44.32;102719.91;5015127;28;20129;-64
2023/01/29 09:07:07;;;;;;;32.60;13.25;;;;;;;7.55;44.16;102724.31;5016213;28;20034;-64
2023/01/29 09:09:33;;;;;;;40.83;12.70;;;;;;;7.54;43.28;102711.91;5016017;28;20049;-64
2023/01/29 09:11:58;;;;;;;41.63;14.10;;;;;;;7.52;44.34;102695.13;5015881;28;20034;-64
2023/01/29 09:14:24;;;;;;;40.60;12.70;;;;;;;7.51;44.06;102700.50;5015879;28;20044;-64
2023/01/29 09:16:49;;;;;;;36.22;13.75;;;;;;;7.49;43.63;102700.56;5015654;28;20399;-64
2023/01/29 09:19:14;;;;;;;35.78;11.70;;;;;;;7.48;44.22;102701.50;5016221;28;20433;-64
2023/01/29 09:21:40;;;;;;;39.40;13.98;;;;;;;7.50;43.71;102701.44;4998139;28;20038;-64
2023/01/29 09:24:05;;;;;;;38.67;13.60;;;;;;;7.49;43.92;102705.91;5015905;28;20038;-64
2023/01/29 09:26:31;;;;;;;36.50;14.35;;;;;;;7.51;43.78;102706.72;4997948;28;20490;-64
2023/01/29 09:28:56;;;;;;;40.15;13.25;;;;;;;7.56;43.55;102701.19;4997798;28;20116;-64
2023/01/29 09:31:21;;;;;;;36.13;12.65;;;;;;;7.60;44.07;102698.34;5016284;28;20041;-64
2023/01/29 09:33:47;;;;;;;42.55;13.93;;;;;;;7.69;43.84;102704.22;5015662;28;20457;-64
2023/01/29 09:36:13;;;;;;;38.72;13.60;;;;;;;7.71;44.19;102697.00;5014233;28;20042;-64
2023/01/29 09:38:38;;;;;;;36.17;12.60;;;;;;;7.76;43.67;102695.03;5015657;28;20034;-64
2023/01/29 09:41:28;;;;;;;39.40;13.65;;;;;;;7.82;43.39;102686.75;5015221;28;20062;-64
2023/01/29 09:44:02;;;;;;;36.10;12.43;;;;;;;7.86;44.29;102680.34;5015130;28;20026;-64
2023/01/29 09:46:42;;;;;;;38.83;14.18;;;;;;;7.74;43.92;102646.19;5014437;28;20058;-64
2023/01/29 09:49:13;;;;;;;45.47;14.82;;;;;;;8.01;44.02;102671.69;4997625;28;20109;-64
2023/01/29 09:52:15;;;;;;;39.00;13.32;;;;;;;8.15;43.38;102671.94;5015275;28;20453;-64
2023/01/29 09:54:54;;;;;;;38.42;12.35;;;;;;;8.28;44.19;102681.16;5004200;28;20062;-64
2023/01/29 09:57:40;;;;;;;37.58;13.48;;;;;;;8.33;43.48;102665.81;5015334;28;20030;-64
2023/01/29 10:00:13;;;;;;;36.92;14.13;;;;;;;8.41;43.08;102674.31;5015005;28;20034;-64
2023/01/29 10:03:07;;;;;;;39.95;13.23;;;;;;;8.45;43.42;102661.72;5014588;28;20033;-64
2023/01/29 10:06:07;;;;;;;32.05;12.10;;;;;;;8.40;43.36;102661.94;5014831;28;20096;-64
2023/01/29 10:08:51;;;;;;;30.67;11.57;;;;;;;8.39;44.26;102672.66;5015249;28;20030;-65
2023/01/29 10:11:16;;;;;;;33.08;13.02;;;;;;;8.44;43.89;102671.53;5015059;28;20030;-64
2023/01/29 10:14:20;;;;;;;36.58;12.85;;;;;;;8.51;43.60;102667.66;5013871;28;20040;-64
2023/01/29 10:17:08;;;;;;;36.47;11.75;;;;;;;8.58;44.03;102671.75;5010000;28;20129;-65
2023/01/29 10:19:59;;;;;;;33.70;11.05;;;;;;;8.62;43.67;102668.00;4995620;28;20065;-64
2023/01/29 10:23:19;;;;;;;31.15;11.38;;;;;;;8.58;44.25;102674.41;5013473;28;20054;-64
2023/01/29 10:25:45;;;;;;;36.20;12.40;;;;;;;8.52;43.86;102665.81;4992754;28;20050;-64
2023/01/29 10:28:20;;;;;;;34.15;12.23;;;;;;;8.61;44.04;102668.94;4977810;28;20038;-64
2023/01/29 10:30:50;;;;;;;31.00;11.95;;;;;;;8.53;43.63;102643.53;5009410;28;20046;-64
2023/01/29 10:33:19;;;;;;;34.58;12.32;;;;;;;8.67;44.11;102652.63;5013117;28;20045;-64
2023/01/29 10:35:51;;;;;;;36.75;13.85;;;;;;;8.74;43.21;102643.38;5012880;28;20042;-64
2023/01/29 10:38:50;;;;;;;35.35;13.60;;;;;;;8.86;43.76;102651.75;4981345;28;20041;-64
2023/01/29 10:41:52;;;;;;;37.33;11.75;;;;;;;8.88;43.16;102655.22;4982976;28;20060;-64
2023/01/29 10:44:39;;;;;;;31.85;11.88;;;;;;;8.94;43.23;102660.25;5012839;28;20045;-64
2023/01/29 10:47:43;;;;;;;42.17;13.27;;;;;;;9.03;44.31;102663.38;5012281;28;20083;-64
2023/01/29 10:50:18;;;;;;;38.53;13.20;;;;;;;9.09;43.12;102659.53;5012960;28;20042;-65
2023/01/29 10:52:49;;;;;;;36.03;13.10;;;;;;;9.14;43.92;102653.00;5012929;28;20056;-64
2023/01/29 10:55:23;;;;;;;33.75;12.88;;;;;;;9.16;43.23;102644.91;5012829;28;20038;-65
2023/01/29 10:58:17;;;;;;;35.88;13.40;;;;;;;9.11;43.89;102641.59;5012641;28;20560;-64
2023/01/29 11:00:42;;;;;;;41.22;13.63;;;;;;;9.10;44.01;102637.22;5014646;28;20042;-64
2023/01/29 11:03:17;;;;;;;32.35;12.63;;;;;;;9.08;43.24;102641.75;5013445;28;20034;-65
2023/01/29 11:05:55;;;;;;;34.58;13.13;;;;;;;9.08;43.40;102639.06;4996581;28;20030;-65
2023/01/29 11:08:23;;;;;;;38.72;14.73;;;;;;;9.06;43.98;102633.81;5014605;28;20029;-64
2023/01/29 11:11:18;;;;;;;39.90;15.02;;;;;;;9.08;43.60;102626.59;5014338;28;20022;-64
2023/01/29 11:13:59;;;;;;;33.30;12.93;;;;;;;9.03;42.98;102619.72;5012667;28;20117;-64
2023/01/29 11:16:26;;;;;;;31.63;12.85;;;;;;;9.04;43.53;102629.50;5014087;28;20034;-65
2023/01/29 11:19:10;;;;;;;42.03;14.07;;;;;;;9.06;43.38;102616.91;5012321;28;20108;-64
2023/01/29 11:21:56;;;;;;;29.58;12.15;;;;;;;9.09;43.53;102616.75;5011508;28;20034;-64
2023/01/29 11:24:21;;;;;;;35.83;13.30;;;;;;;9.08;44.04;102615.00;5012241;28;20154;-65
2023/01/29 11:26:48;;;;;;;37.92;13.27;;;;;;;9.10;42.99;102610.47;5012420;28;20521;-64
2023/01/29 11:29:26;;;;;;;35.60;14.18;;;;;;;9.14;44.26;102601.34;5012661;28;20038;-65
2023/01/29 11:31:52;;;;;;;38.72;13.35;;;;;;;9.14;43.86;102604.03;5012209;28;20036;-63
2023/01/29 11:34:20;;;;;;;43.20;14.93;;;;;;;9.14;42.61;102606.69;4996262;28;20033;-65
2023/01/29 11:36:59;;;;;;;33.75;13.65;;;;;;;9.14;43.39;102596.00;5013456;28;20037;-64
2023/01/29 11:39:26;;;;;;;40.22;13.95;;;;;;;9.16;43.16;102591.44;4995733;28;20037;-64
2023/01/29 11:41:59;;;;;;;35.95;13.40;;;;;;;9.20;43.61;102582.34;5013780;28;20053;-64
2023/01/29 11:44:40;;;;;;;33.83;11.57;;;;;;;9.24;43.31;102573.22;5012018;28;20034;-65
2023/01/29 11:47:11;;;;;;;32.95;13.43;;;;;;;9.26;43.59;102574.00;5013602;28;20025;-65
2023/01/29 11:49:38;;;;;;;31.88;11.45;;;;;;;9.23;43.36;102558.13;5014152;28;20029;-65
2023/01/29 11:52:06;;;;;;;40.70;14.52;;;;;;;9.32;43.87;102555.00;5012360;28;20041;-67
2023/01/29 11:54:37;;;;;;;33.08;13.50;;;;;;;9.38;43.64;102560.00;4996229;28;20052;-66
2023/01/29 11:57:03;;;;;;;32.53;12.85;;;;;;;9.42;43.77;102550.88;5012046;28;20136;-65
2023/01/29 11:59:42;;;;;;;35.20;12.88;;;;;;;9.46;43.93;102562.28;4995955;28;20040;-67
2023/01/29 12:02:37;;;;;;;34.65;12.45;;;;;;;9.50;43.30;102539.78;5013618;28;20041;-66
2023/01/29 12:05:15;;;;;;;35.55;12.85;;;;;;;9.53;43.12;102531.59;5008616;28;20529;-65